sensor_id;sensor_type;location;lat;lon;timestamp;pressure;altitude;pressure_sealevel;temperature;humidity
64889;BME280;51386;53.082;8.816;2023-02-22T00:00:30;101574.75;;;15.37;59.24
64889;BME280;51386;53.082;8.816;2023-02-22T00:03:12;101570.84;;;15.33;59.29
64889;BME280;51386;53.082;8.816;2023-02-22T00:05:42;101565.53;;;15.33;59.18
64889;BME280;51386;53.082;8.816;2023-02-22T00:08:22;101564.88;;;15.31;59.53
64889;BME280;51386;53.082;8.816;2023-02-22T00:10:49;101557.59;;;15.33;59.38
64889;BME280;51386;53.082;8.816;2023-02-22T00:13:18;101563.53;;;15.35;59.31
64889;BME280;51386;53.082;8.816;2023-02-22T00:15:49;101556.81;;;15.39;59.05
64889;BME280;51386;53.082;8.816;2023-02-22T00:18:18;101553.81;;;15.42;59.04
64889;BME280;51386;53.082;8.816;2023-02-22T00:20:45;101551.63;;;15.45;58.82
64889;BME280;51386;53.082;8.816;2023-02-22T00:23:15;101554.94;;;15.47;59.01
64889;BME280;51386;53.082;8.816;2023-02-22T00:25:45;101548.41;;;15.50;58.91
64889;BME280;51386;53.082;8.816;2023-02-22T00:28:13;101550.06;;;15.51;59.12
64889;BME280;51386;53.082;8.816;2023-02-22T00:30:40;101555.00;;;15.54;58.90
64889;BME280;51386;53.082;8.816;2023-02-22T00:33:14;101552.97;;;15.56;58.81
64889;BME280;51386;53.082;8.816;2023-02-22T00:35:43;101550.97;;;15.58;58.78
64889;BME280;51386;53.082;8.816;2023-02-22T00:38:14;101544.81;;;15.57;58.40
64889;BME280;51386;53.082;8.816;2023-02-22T00:40:41;101546.66;;;15.57;58.95
64889;BME280;51386;53.082;8.816;2023-02-22T00:43:08;101551.97;;;15.57;58.69
64889;BME280;51386;53.082;8.816;2023-02-22T00:45:36;101548.41;;;15.50;58.88
64889;BME280;51386;53.082;8.816;2023-02-22T00:48:05;101545.84;;;15.42;58.85
64889;BME280;51386;53.082;8.816;2023-02-22T00:50:34;101541.28;;;15.36;58.64
64889;BME280;51386;53.082;8.816;2023-02-22T00:53:03;101538.00;;;15.34;59.04
64889;BME280;51386;53.082;8.816;2023-02-22T00:55:33;101539.19;;;15.31;59.34
64889;BME280;51386;53.082;8.816;2023-02-22T00:58:02;101535.53;;;15.32;59.07
64889;BME280;51386;53.082;8.816;2023-02-22T01:00:31;101534.06;;;15.30;59.02
64889;BME280;51386;53.082;8.816;2023-02-22T01:02:59;101531.63;;;15.28;59.08
64889;BME280;51386;53.082;8.816;2023-02-22T01:05:28;101523.81;;;15.27;59.20
64889;BME280;51386;53.082;8.816;2023-02-22T01:07:59;101524.03;;;15.25;59.23
64889;BME280;51386;53.082;8.816;2023-02-22T01:10:29;101525.41;;;15.21;59.26
64889;BME280;51386;53.082;8.816;2023-02-22T01:12:58;101519.44;;;15.19;59.11
64889;BME280;51386;53.082;8.816;2023-02-22T01:15:28;101517.97;;;15.17;59.64
64889;BME280;51386;53.082;8.816;2023-02-22T01:17:57;101519.16;;;15.14;59.36
64889;BME280;51386;53.082;8.816;2023-02-22T01:20:27;101527.69;;;15.10;59.53
64889;BME280;51386;53.082;8.816;2023-02-22T01:22:58;101517.19;;;15.02;59.69
64889;BME280;51386;53.082;8.816;2023-02-22T01:25:30;101518.19;;;15.01;59.90
64889;BME280;51386;53.082;8.816;2023-02-22T01:27:59;101524.69;;;14.98;59.86
64889;BME280;51386;53.082;8.816;2023-02-22T01:30:31;101515.09;;;14.97;59.86
64889;BME280;51386;53.082;8.816;2023-02-22T01:33:00;101513.91;;;15.00;60.13
64889;BME280;51386;53.082;8.816;2023-02-22T01:35:31;101506.94;;;14.99;60.01
64889;BME280;51386;53.082;8.816;2023-02-22T01:38:00;101504.50;;;14.97;60.00
64889;BME280;51386;53.082;8.816;2023-02-22T01:40:30;101497.53;;;14.96;59.73
64889;BME280;51386;53.082;8.816;2023-02-22T01:43:01;101492.69;;;15.00;59.95
64889;BME280;51386;53.082;8.816;2023-02-22T01:45:59;101490.75;;;14.93;60.15
64889;BME280;51386;53.082;8.816;2023-02-22T01:48:37;101492.22;;;14.96;60.25
64889;BME280;51386;53.082;8.816;2023-02-22T01:51:10;101490.22;;;14.98;60.14
64889;BME280;51386;53.082;8.816;2023-02-22T01:53:46;101489.84;;;15.01;59.95
64889;BME280;51386;53.082;8.816;2023-02-22T01:56:16;101489.66;;;15.03;59.84
64889;BME280;51386;53.082;8.816;2023-02-22T01:58:51;101485.72;;;14.99;60.09
64889;BME280;51386;53.082;8.816;2023-02-22T02:01:22;101482.44;;;14.97;59.99
64889;BME280;51386;53.082;8.816;2023-02-22T02:03:54;101482.81;;;14.93;60.18
64889;BME280;51386;53.082;8.816;2023-02-22T02:06:25;101481.19;;;14.93;59.98
64889;BME280;51386;53.082;8.816;2023-02-22T02:09:02;101484.19;;;14.89;60.22
64889;BME280;51386;53.082;8.816;2023-02-22T02:11:31;101480.91;;;14.87;60.01
64889;BME280;51386;53.082;8.816;2023-02-22T02:13:58;101476.81;;;14.85;60.27
64889;BME280;51386;53.082;8.816;2023-02-22T02:16:34;101474.16;;;14.85;59.92
64889;BME280;51386;53.082;8.816;2023-02-22T02:19:14;101474.31;;;14.83;60.03
64889;BME280;51386;53.082;8.816;2023-02-22T02:22:11;101473.59;;;14.75;60.19
64889;BME280;51386;53.082;8.816;2023-02-22T02:28:42;101470.94;;;14.75;60.17
64889;BME280;51386;53.082;8.816;2023-02-22T02:32:00;101465.56;;;14.68;60.29
64889;BME280;51386;53.082;8.816;2023-02-22T02:34:45;101469.84;;;14.69;60.32
64889;BME280;51386;53.082;8.816;2023-02-22T02:37:23;101471.50;;;14.70;60.53
64889;BME280;51386;53.082;8.816;2023-02-22T02:40:01;101468.28;;;14.75;60.16
64889;BME280;51386;53.082;8.816;2023-02-22T02:42:37;101456.50;;;14.77;60.26
64889;BME280;51386;53.082;8.816;2023-02-22T02:45:12;101450.03;;;14.80;60.46
64889;BME280;51386;53.082;8.816;2023-02-22T02:47:48;101458.41;;;14.83;60.34
64889;BME280;51386;53.082;8.816;2023-02-22T02:50:22;101450.09;;;14.86;60.30
64889;BME280;51386;53.082;8.816;2023-02-22T02:52:54;101448.19;;;14.80;60.40
64889;BME280;51386;53.082;8.816;2023-02-22T02:55:23;101441.44;;;14.78;60.27
64889;BME280;51386;53.082;8.816;2023-02-22T02:57:50;101446.75;;;14.78;60.32
64889;BME280;51386;53.082;8.816;2023-02-22T03:00:25;101443.25;;;14.77;60.11
64889;BME280;51386;53.082;8.816;2023-02-22T03:03:08;101438.59;;;14.79;60.09
64889;BME280;51386;53.082;8.816;2023-02-22T03:06:06;101433.03;;;14.74;60.26
64889;BME280;51386;53.082;8.816;2023-02-22T03:08:44;101440.13;;;14.74;60.19
64889;BME280;51386;53.082;8.816;2023-02-22T03:11:19;101436.31;;;14.76;60.30
64889;BME280;51386;53.082;8.816;2023-02-22T03:13:56;101429.38;;;14.75;60.02
64889;BME280;51386;53.082;8.816;2023-02-22T03:16:42;101422.63;;;14.73;60.33
64889;BME280;51386;53.082;8.816;2023-02-22T03:19:25;101419.13;;;14.72;60.33
64889;BME280;51386;53.082;8.816;2023-02-22T03:22:01;101421.97;;;14.71;60.18
64889;BME280;51386;53.082;8.816;2023-02-22T03:24:34;101416.06;;;14.69;60.40
64889;BME280;51386;53.082;8.816;2023-02-22T03:27:07;101415.16;;;14.62;60.67
64889;BME280;51386;53.082;8.816;2023-02-22T03:29:41;101409.00;;;14.61;60.78
64889;BME280;51386;53.082;8.816;2023-02-22T03:32:14;101414.31;;;14.61;60.73
64889;BME280;51386;53.082;8.816;2023-02-22T03:34:49;101408.38;;;14.59;60.55
64889;BME280;51386;53.082;8.816;2023-02-22T03:37:23;101410.47;;;14.64;60.81
64889;BME280;51386;53.082;8.816;2023-02-22T03:39:55;101414.31;;;14.61;60.69
64889;BME280;51386;53.082;8.816;2023-02-22T03:42:30;101416.34;;;14.59;60.81
64889;BME280;51386;53.082;8.816;2023-02-22T03:45:02;101398.31;;;14.55;60.77
64889;BME280;51386;53.082;8.816;2023-02-22T03:47:36;101410.13;;;14.52;61.01
64889;BME280;51386;53.082;8.816;2023-02-22T03:50:11;101407.19;;;14.47;60.89
64889;BME280;51386;53.082;8.816;2023-02-22T03:52:42;101404.28;;;14.42;61.11
64889;BME280;51386;53.082;8.816;2023-02-22T03:55:11;101411.94;;;14.37;61.43
64889;BME280;51386;53.082;8.816;2023-02-22T03:57:42;101413.56;;;14.38;61.14
64889;BME280;51386;53.082;8.816;2023-02-22T04:00:18;101417.88;;;14.39;61.19
64889;BME280;51386;53.082;8.816;2023-02-22T04:02:45;101408.28;;;14.38;61.46
64889;BME280;51386;53.082;8.816;2023-02-22T04:05:14;101411.13;;;14.37;61.14
64889;BME280;51386;53.082;8.816;2023-02-22T04:07:42;101405.38;;;14.33;61.23
64889;BME280;51386;53.082;8.816;2023-02-22T04:10:10;101411.03;;;14.30;61.26
64889;BME280;51386;53.082;8.816;2023-02-22T04:12:37;101417.47;;;14.27;61.13
64889;BME280;51386;53.082;8.816;2023-02-22T04:15:06;101414.53;;;14.22;61.09
64889;BME280;51386;53.082;8.816;2023-02-22T04:17:34;101413.28;;;14.18;61.16
64889;BME280;51386;53.082;8.816;2023-02-22T04:20:01;101412.16;;;14.13;61.76
64889;BME280;51386;53.082;8.816;2023-02-22T04:22:30;101407.41;;;14.08;61.23
64889;BME280;51386;53.082;8.816;2023-02-22T04:24:57;101408.94;;;14.03;61.26
64889;BME280;51386;53.082;8.816;2023-02-22T04:27:24;101412.97;;;13.99;61.55
64889;BME280;51386;53.082;8.816;2023-02-22T04:29:51;101404.75;;;13.94;61.88
64889;BME280;51386;53.082;8.816;2023-02-22T04:32:18;101407.56;;;13.92;61.74
64889;BME280;51386;53.082;8.816;2023-02-22T04:34:45;101409.09;;;13.87;61.35
64889;BME280;51386;53.082;8.816;2023-02-22T04:37:12;101405.19;;;13.83;61.94
64889;BME280;51386;53.082;8.816;2023-02-22T04:39:40;101405.53;;;13.80;62.01
64889;BME280;51386;53.082;8.816;2023-02-22T04:42:07;101405.88;;;13.77;62.08
64889;BME280;51386;53.082;8.816;2023-02-22T04:44:34;101404.25;;;13.76;61.80
64889;BME280;51386;53.082;8.816;2023-02-22T04:47:02;101402.78;;;13.73;61.94
64889;BME280;51386;53.082;8.816;2023-02-22T04:49:28;101406.59;;;13.71;61.95
64889;BME280;51386;53.082;8.816;2023-02-22T04:51:55;101398.03;;;13.69;61.87
64889;BME280;51386;53.082;8.816;2023-02-22T04:54:22;101402.69;;;13.67;61.93
64889;BME280;51386;53.082;8.816;2023-02-22T04:56:51;101389.81;;;13.64;61.97
64889;BME280;51386;53.082;8.816;2023-02-22T04:59:18;101396.09;;;13.63;62.10
64889;BME280;51386;53.082;8.816;2023-02-22T05:01:45;101398.44;;;13.57;62.64
64889;BME280;51386;53.082;8.816;2023-02-22T05:04:12;101389.41;;;13.52;62.39
64889;BME280;51386;53.082;8.816;2023-02-22T05:06:39;101401.16;;;13.49;62.44
64889;BME280;51386;53.082;8.816;2023-02-22T05:09:06;101399.84;;;13.45;62.76
64889;BME280;51386;53.082;8.816;2023-02-22T05:11:33;101394.94;;;13.42;62.53
64889;BME280;51386;53.082;8.816;2023-02-22T05:14:01;101396.25;;;13.38;62.97
64889;BME280;51386;53.082;8.816;2023-02-22T05:16:28;101391.50;;;13.34;62.95
64889;BME280;51386;53.082;8.816;2023-02-22T05:18:55;101389.06;;;13.32;63.23
64889;BME280;51386;53.082;8.816;2023-02-22T05:21:22;101390.03;;;13.31;63.43
64889;BME280;51386;53.082;8.816;2023-02-22T05:23:49;101384.47;;;13.26;63.68
64889;BME280;51386;53.082;8.816;2023-02-22T05:26:16;101376.59;;;13.18;63.84
64889;BME280;51386;53.082;8.816;2023-02-22T05:28:44;101377.94;;;13.14;64.12
64889;BME280;51386;53.082;8.816;2023-02-22T05:31:13;101376.81;;;13.09;64.04
64889;BME280;51386;53.082;8.816;2023-02-22T05:33:40;101382.28;;;13.07;64.30
64889;BME280;51386;53.082;8.816;2023-02-22T05:36:08;101369.09;;;13.07;64.36
64889;BME280;51386;53.082;8.816;2023-02-22T05:38:36;101377.66;;;13.09;64.26
64889;BME280;51386;53.082;8.816;2023-02-22T05:41:10;101376.00;;;13.08;64.29
64889;BME280;51386;53.082;8.816;2023-02-22T05:43:38;101362.78;;;13.08;64.24
64889;BME280;51386;53.082;8.816;2023-02-22T05:46:06;101364.59;;;13.08;64.25
64889;BME280;51386;53.082;8.816;2023-02-22T05:48:34;101362.13;;;13.06;64.05
64889;BME280;51386;53.082;8.816;2023-02-22T05:51:01;101356.34;;;13.03;64.18
64889;BME280;51386;53.082;8.816;2023-02-22T05:53:29;101359.50;;;12.98;64.30
64889;BME280;51386;53.082;8.816;2023-02-22T05:55:56;101348.94;;;12.98;64.18
64889;BME280;51386;53.082;8.816;2023-02-22T05:58:24;101358.50;;;12.99;64.12
64889;BME280;51386;53.082;8.816;2023-02-22T06:00:51;101346.97;;;13.00;64.00
64889;BME280;51386;53.082;8.816;2023-02-22T06:03:18;101345.94;;;13.01;63.83
64889;BME280;51386;53.082;8.816;2023-02-22T06:05:47;101344.31;;;13.00;63.61
64889;BME280;51386;53.082;8.816;2023-02-22T06:08:14;101341.50;;;13.02;63.60
64889;BME280;51386;53.082;8.816;2023-02-22T06:10:41;101342.31;;;13.02;63.71
64889;BME280;51386;53.082;8.816;2023-02-22T06:13:08;101350.25;;;13.02;63.43
64889;BME280;51386;53.082;8.816;2023-02-22T06:15:35;101347.59;;;13.02;63.56
64889;BME280;51386;53.082;8.816;2023-02-22T06:18:02;101348.59;;;13.01;63.48
64889;BME280;51386;53.082;8.816;2023-02-22T06:20:30;101343.66;;;12.98;63.69
64889;BME280;51386;53.082;8.816;2023-02-22T06:23:00;101343.66;;;12.98;63.73
64889;BME280;51386;53.082;8.816;2023-02-22T06:25:30;101342.84;;;12.98;63.51
64889;BME280;51386;53.082;8.816;2023-02-22T06:27:57;101341.50;;;13.02;63.83
64889;BME280;51386;53.082;8.816;2023-02-22T06:30:27;101332.09;;;13.07;63.82
64889;BME280;51386;53.082;8.816;2023-02-22T06:32:54;101338.31;;;13.14;63.53
64889;BME280;51386;53.082;8.816;2023-02-22T06:35:22;101339.25;;;13.21;63.42
64889;BME280;51386;53.082;8.816;2023-02-22T06:37:49;101336.53;;;13.29;63.41
64889;BME280;51386;53.082;8.816;2023-02-22T06:40:18;101336.66;;;13.36;63.20
64889;BME280;51386;53.082;8.816;2023-02-22T06:42:47;101334.13;;;13.42;62.76
64889;BME280;51386;53.082;8.816;2023-02-22T06:45:16;101336.03;;;13.48;62.83
64889;BME280;51386;53.082;8.816;2023-02-22T06:47:43;101330.19;;;13.53;62.78
64889;BME280;51386;53.082;8.816;2023-02-22T06:50:20;101326.22;;;13.57;62.95
64889;BME280;51386;53.082;8.816;2023-02-22T06:52:47;101331.59;;;13.64;62.64
64889;BME280;51386;53.082;8.816;2023-02-22T06:55:21;101328.59;;;13.67;62.51
64889;BME280;51386;53.082;8.816;2023-02-22T06:57:50;101330.34;;;13.74;62.70
64889;BME280;51386;53.082;8.816;2023-02-22T07:00:21;101334.09;;;13.80;62.48
64889;BME280;51386;53.082;8.816;2023-02-22T07:02:51;101331.72;;;13.85;62.29
64889;BME280;51386;53.082;8.816;2023-02-22T07:05:21;101329.38;;;13.90;62.21
64889;BME280;51386;53.082;8.816;2023-02-22T07:07:52;101331.81;;;13.91;62.01
64889;BME280;51386;53.082;8.816;2023-02-22T07:10:28;101325.34;;;13.94;62.03
64889;BME280;51386;53.082;8.816;2023-02-22T07:12:55;101326.25;;;14.01;61.84
64889;BME280;51386;53.082;8.816;2023-02-22T07:15:24;101330.84;;;14.07;61.49
64889;BME280;51386;53.082;8.816;2023-02-22T07:17:51;101329.19;;;14.06;61.56
64889;BME280;51386;53.082;8.816;2023-02-22T07:20:21;101328.81;;;14.09;61.42
64889;BME280;51386;53.082;8.816;2023-02-22T07:22:49;101332.09;;;14.11;60.86
64889;BME280;51386;53.082;8.816;2023-02-22T07:25:17;101338.66;;;14.15;61.10
64889;BME280;51386;53.082;8.816;2023-02-22T07:27:46;101340.31;;;14.16;60.49
64889;BME280;51386;53.082;8.816;2023-02-22T07:30:19;101335.75;;;14.10;60.51
64889;BME280;51386;53.082;8.816;2023-02-22T07:32:46;101332.81;;;14.05;60.88
64889;BME280;51386;53.082;8.816;2023-02-22T07:35:16;101330.00;;;14.06;60.60
64889;BME280;51386;53.082;8.816;2023-02-22T07:37:43;101329.81;;;14.08;60.62
64889;BME280;51386;53.082;8.816;2023-02-22T07:40:11;101328.97;;;14.07;60.46
64889;BME280;51386;53.082;8.816;2023-02-22T07:42:52;101314.56;;;14.10;60.67
64889;BME280;51386;53.082;8.816;2023-02-22T07:45:21;101324.53;;;14.22;60.33
64889;BME280;51386;53.082;8.816;2023-02-22T07:47:48;101326.56;;;14.35;60.10
64889;BME280;51386;53.082;8.816;2023-02-22T07:50:17;101323.16;;;14.41;59.66
64889;BME280;51386;53.082;8.816;2023-02-22T07:52:45;101319.41;;;14.50;59.70
64889;BME280;51386;53.082;8.816;2023-02-22T07:55:14;101320.13;;;14.59;59.16
64889;BME280;51386;53.082;8.816;2023-02-22T07:57:44;101317.63;;;14.57;58.65
64889;BME280;51386;53.082;8.816;2023-02-22T08:00:22;101319.28;;;14.58;58.61
64889;BME280;51386;53.082;8.816;2023-02-22T08:02:49;101319.38;;;14.65;58.85
64889;BME280;51386;53.082;8.816;2023-02-22T08:05:18;101312.44;;;14.64;58.43
64889;BME280;51386;53.082;8.816;2023-02-22T08:07:45;101314.00;;;14.58;58.04
64889;BME280;51386;53.082;8.816;2023-02-22T08:10:16;101315.25;;;14.62;58.35
64889;BME280;51386;53.082;8.816;2023-02-22T08:12:43;101319.63;;;14.70;58.36
64889;BME280;51386;53.082;8.816;2023-02-22T08:15:18;101320.72;;;14.75;57.65
64889;BME280;51386;53.082;8.816;2023-02-22T08:17:45;101323.25;;;14.83;57.10
64889;BME280;51386;53.082;8.816;2023-02-22T08:20:13;101314.13;;;14.71;57.05
64889;BME280;51386;53.082;8.816;2023-02-22T08:22:42;101315.34;;;14.69;57.77
64889;BME280;51386;53.082;8.816;2023-02-22T08:25:10;101309.59;;;14.65;57.30
64889;BME280;51386;53.082;8.816;2023-02-22T08:27:37;101303.63;;;14.42;57.64
64889;BME280;51386;53.082;8.816;2023-02-22T08:30:05;101304.63;;;14.41;58.10
64889;BME280;51386;53.082;8.816;2023-02-22T08:32:34;101305.53;;;14.48;57.80
64889;BME280;51386;53.082;8.816;2023-02-22T08:35:02;101306.44;;;14.41;57.55
64889;BME280;51386;53.082;8.816;2023-02-22T08:37:29;101297.03;;;14.38;58.17
64889;BME280;51386;53.082;8.816;2023-02-22T08:39:56;101298.69;;;14.39;58.12
64889;BME280;51386;53.082;8.816;2023-02-22T08:42:23;101302.16;;;14.40;57.94
64889;BME280;51386;53.082;8.816;2023-02-22T08:44:50;101305.44;;;14.42;58.05
64889;BME280;51386;53.082;8.816;2023-02-22T08:47:17;101298.41;;;14.49;57.88
64889;BME280;51386;53.082;8.816;2023-02-22T08:49:45;101298.66;;;14.54;57.83
64889;BME280;51386;53.082;8.816;2023-02-22T08:52:12;101298.16;;;14.65;57.56
64889;BME280;51386;53.082;8.816;2023-02-22T08:54:39;101303.53;;;14.71;57.38
64889;BME280;51386;53.082;8.816;2023-02-22T08:57:06;101289.34;;;14.79;56.95
64889;BME280;51386;53.082;8.816;2023-02-22T08:59:33;101292.72;;;14.87;56.94
64889;BME280;51386;53.082;8.816;2023-02-22T09:02:00;101288.00;;;15.04;56.57
64889;BME280;51386;53.082;8.816;2023-02-22T09:04:28;101288.53;;;15.21;56.50
64889;BME280;51386;53.082;8.816;2023-02-22T09:06:56;101285.00;;;15.35;55.71
64889;BME280;51386;53.082;8.816;2023-02-22T09:09:23;101286.97;;;15.47;55.50
64889;BME280;51386;53.082;8.816;2023-02-22T09:11:50;101286.59;;;15.57;55.03
64889;BME280;51386;53.082;8.816;2023-02-22T09:14:19;101285.63;;;15.65;55.18
64889;BME280;51386;53.082;8.816;2023-02-22T09:16:46;101277.94;;;15.76;54.71
64889;BME280;51386;53.082;8.816;2023-02-22T09:19:13;101279.47;;;15.85;54.15
64889;BME280;51386;53.082;8.816;2023-02-22T09:21:40;101278.91;;;15.96;54.12
64889;BME280;51386;53.082;8.816;2023-02-22T09:24:08;101285.28;;;16.08;53.84
64889;BME280;51386;53.082;8.816;2023-02-22T09:26:36;101283.13;;;16.25;53.69
64889;BME280;51386;53.082;8.816;2023-02-22T09:29:06;101279.09;;;16.42;53.53
64889;BME280;51386;53.082;8.816;2023-02-22T09:31:36;101282.88;;;16.67;51.80
64889;BME280;51386;53.082;8.816;2023-02-22T09:34:05;101275.78;;;16.94;52.04
64889;BME280;51386;53.082;8.816;2023-02-22T09:36:39;101277.66;;;17.39;51.39
64889;BME280;51386;53.082;8.816;2023-02-22T09:39:09;101274.31;;;17.83;50.26
64889;BME280;51386;53.082;8.816;2023-02-22T09:41:48;101269.63;;;18.36;49.75
64889;BME280;51386;53.082;8.816;2023-02-22T09:44:24;101267.69;;;18.94;48.81
64889;BME280;51386;53.082;8.816;2023-02-22T09:46:57;101278.50;;;19.73;47.76
64889;BME280;51386;53.082;8.816;2023-02-22T09:49:31;101272.44;;;20.02;44.41
64889;BME280;51386;53.082;8.816;2023-02-22T09:52:05;101286.69;;;20.51;44.75
64889;BME280;51386;53.082;8.816;2023-02-22T09:54:43;101276.06;;;21.04;43.25
64889;BME280;51386;53.082;8.816;2023-02-22T09:57:17;101272.16;;;21.41;41.18
64889;BME280;51386;53.082;8.816;2023-02-22T09:59:56;101272.16;;;21.52;41.06
64889;BME280;51386;53.082;8.816;2023-02-22T10:02:31;101272.50;;;21.91;41.94
64889;BME280;51386;53.082;8.816;2023-02-22T10:05:09;101266.63;;;22.17;40.68
64889;BME280;51386;53.082;8.816;2023-02-22T10:07:46;101261.03;;;22.07;39.94
64889;BME280;51386;53.082;8.816;2023-02-22T10:10:21;101252.69;;;21.92;40.08
64889;BME280;51386;53.082;8.816;2023-02-22T10:12:58;101250.69;;;21.76;40.05
64889;BME280;51386;53.082;8.816;2023-02-22T10:15:45;101251.31;;;21.54;40.27
64889;BME280;51386;53.082;8.816;2023-02-22T10:18:44;101246.78;;;21.32;40.62
64889;BME280;51386;53.082;8.816;2023-02-22T10:21:45;101242.81;;;21.34;41.10
64889;BME280;51386;53.082;8.816;2023-02-22T10:24:34;101236.41;;;21.12;41.09
64889;BME280;51386;53.082;8.816;2023-02-22T10:27:16;101238.66;;;20.97;41.60
64889;BME280;51386;53.082;8.816;2023-02-22T10:29:49;101237.25;;;20.83;41.51
64889;BME280;51386;53.082;8.816;2023-02-22T10:32:25;101238.06;;;20.83;42.31
64889;BME280;51386;53.082;8.816;2023-02-22T10:34:57;101238.44;;;20.87;41.57
64889;BME280;51386;53.082;8.816;2023-02-22T10:37:29;101239.19;;;20.76;41.71
64889;BME280;51386;53.082;8.816;2023-02-22T10:40:10;101235.81;;;20.69;42.34
64889;BME280;51386;53.082;8.816;2023-02-22T10:42:39;101231.97;;;20.65;42.47
64889;BME280;51386;53.082;8.816;2023-02-22T10:45:22;101236.69;;;20.51;42.47
64889;BME280;51386;53.082;8.816;2023-02-22T10:47:50;101238.38;;;20.34;42.28
64889;BME280;51386;53.082;8.816;2023-02-22T10:50:20;101226.56;;;20.05;42.89
64889;BME280;51386;53.082;8.816;2023-02-22T10:52:48;101221.16;;;19.94;43.75
64889;BME280;51386;53.082;8.816;2023-02-22T10:55:15;101226.13;;;19.90;44.30
64889;BME280;51386;53.082;8.816;2023-02-22T10:57:48;101219.09;;;19.96;44.18
64889;BME280;51386;53.082;8.816;2023-02-22T11:00:19;101219.66;;;19.98;43.82
64889;BME280;51386;53.082;8.816;2023-02-22T11:02:55;101217.91;;;19.92;43.83
64889;BME280;51386;53.082;8.816;2023-02-22T11:05:33;101199.03;;;20.05;43.86
64889;BME280;51386;53.082;8.816;2023-02-22T11:08:25;101205.47;;;20.34;43.79
64889;BME280;51386;53.082;8.816;2023-02-22T11:10:56;101212.16;;;20.54;43.55
64889;BME280;51386;53.082;8.816;2023-02-22T11:13:29;101207.66;;;20.78;42.95
64889;BME280;51386;53.082;8.816;2023-02-22T11:16:00;101195.81;;;20.85;42.78
64889;BME280;51386;53.082;8.816;2023-02-22T11:18:32;101197.47;;;20.98;42.55
64889;BME280;51386;53.082;8.816;2023-02-22T11:21:03;101196.22;;;21.24;42.72
64889;BME280;51386;53.082;8.816;2023-02-22T11:23:31;101194.94;;;21.49;42.26
64889;BME280;51386;53.082;8.816;2023-02-22T11:26:09;101199.47;;;21.49;41.58
64889;BME280;51386;53.082;8.816;2023-02-22T11:28:42;101183.53;;;21.31;41.07
64889;BME280;51386;53.082;8.816;2023-02-22T11:31:19;101172.25;;;21.06;42.12
64889;BME280;51386;53.082;8.816;2023-02-22T11:33:53;101176.97;;;20.92;42.78
64889;BME280;51386;53.082;8.816;2023-02-22T11:36:34;101175.09;;;20.81;42.52
64889;BME280;51386;53.082;8.816;2023-02-22T11:39:23;101174.66;;;20.84;43.19
64889;BME280;51386;53.082;8.816;2023-02-22T11:41:50;101176.50;;;20.95;42.49
64889;BME280;51386;53.082;8.816;2023-02-22T11:44:25;101173.03;;;21.06;42.90
64889;BME280;51386;53.082;8.816;2023-02-22T11:46:55;101170.97;;;21.08;42.60
64889;BME280;51386;53.082;8.816;2023-02-22T11:49:31;101167.81;;;21.11;42.86
64889;BME280;51386;53.082;8.816;2023-02-22T11:52:20;101168.41;;;21.13;42.65
64889;BME280;51386;53.082;8.816;2023-02-22T11:55:07;101165.00;;;21.06;42.30
64889;BME280;51386;53.082;8.816;2023-02-22T11:58:27;101164.84;;;20.89;43.30
64889;BME280;51386;53.082;8.816;2023-02-22T12:01:04;101162.56;;;20.93;43.04
64889;BME280;51386;53.082;8.816;2023-02-22T12:03:55;101156.88;;;21.01;42.95
64889;BME280;51386;53.082;8.816;2023-02-22T12:06:40;101150.19;;;20.92;42.69
64889;BME280;51386;53.082;8.816;2023-02-22T12:09:16;101153.00;;;20.85;42.77
64889;BME280;51386;53.082;8.816;2023-02-22T12:11:56;101145.22;;;20.72;42.84
64889;BME280;51386;53.082;8.816;2023-02-22T12:14:33;101144.13;;;20.62;43.35
64889;BME280;51386;53.082;8.816;2023-02-22T12:17:23;101139.00;;;20.49;43.78
64889;BME280;51386;53.082;8.816;2023-02-22T12:19:56;101142.44;;;20.38;44.02
64889;BME280;51386;53.082;8.816;2023-02-22T12:22:31;101145.31;;;20.06;44.69
64889;BME280;51386;53.082;8.816;2023-02-22T12:25:05;101132.75;;;19.95;45.35
64889;BME280;51386;53.082;8.816;2023-02-22T12:27:41;101138.09;;;19.95;45.15
64889;BME280;51386;53.082;8.816;2023-02-22T12:30:17;101135.59;;;19.82;45.49
64889;BME280;51386;53.082;8.816;2023-02-22T12:32:51;101135.47;;;19.77;45.83
64889;BME280;51386;53.082;8.816;2023-02-22T12:35:22;101125.22;;;19.74;46.18
64889;BME280;51386;53.082;8.816;2023-02-22T12:38:00;101129.38;;;19.70;46.12
64889;BME280;51386;53.082;8.816;2023-02-22T12:40:37;101126.72;;;19.70;45.95
64889;BME280;51386;53.082;8.816;2023-02-22T12:43:13;101128.03;;;19.79;45.66
64889;BME280;51386;53.082;8.816;2023-02-22T12:45:47;101129.97;;;19.72;45.70
64889;BME280;51386;53.082;8.816;2023-02-22T12:48:30;101132.13;;;19.45;46.44
64889;BME280;51386;53.082;8.816;2023-02-22T12:51:16;101123.00;;;19.53;46.60
64889;BME280;51386;53.082;8.816;2023-02-22T12:53:55;101122.56;;;19.56;46.20
64889;BME280;51386;53.082;8.816;2023-02-22T12:56:30;101120.69;;;19.56;46.57
64889;BME280;51386;53.082;8.816;2023-02-22T12:59:08;101121.84;;;19.49;46.71
64889;BME280;51386;53.082;8.816;2023-02-22T13:01:39;101111.16;;;19.49;46.76
64889;BME280;51386;53.082;8.816;2023-02-22T13:04:10;101109.06;;;19.51;46.66
64889;BME280;51386;53.082;8.816;2023-02-22T13:07:05;101108.25;;;19.50;46.67
64889;BME280;51386;53.082;8.816;2023-02-22T13:10:17;101105.88;;;19.42;46.86
64889;BME280;51386;53.082;8.816;2023-02-22T13:12:56;101100.91;;;19.46;46.97
64889;BME280;51386;53.082;8.816;2023-02-22T13:15:40;101095.88;;;19.56;47.40
64889;BME280;51386;53.082;8.816;2023-02-22T13:18:19;101091.59;;;19.67;46.68
64889;BME280;51386;53.082;8.816;2023-02-22T13:20:58;101091.50;;;19.73;46.40